sensor_id;sensor_type;location;lat;lon;timestamp;P1;durP1;ratioP1;P2;durP2;ratioP2
5805;SDS011;2929;50.810;8.342;2022-12-24T00:01:54;10.23;;;2.20;;
5805;SDS011;2929;50.810;8.342;2022-12-24T00:04:21;13.23;;;2.00;;
5805;SDS011;2929;50.810;8.342;2022-12-24T00:06:48;15.17;;;2.63;;
5805;SDS011;2929;50.810;8.342;2022-12-24T00:09:16;9.63;;;1.90;;
5805;SDS011;2929;50.810;8.342;2022-12-24T00:11:43;8.67;;;2.30;;
5805;SDS011;2929;50.810;8.342;2022-12-24T00:14:10;7.43;;;2.30;;
5805;SDS011;2929;50.810;8.342;2022-12-24T00:16:37;13.20;;;2.20;;
5805;SDS011;2929;50.810;8.342;2022-12-24T00:19:04;11.43;;;2.03;;
5805;SDS011;2929;50.810;8.342;2022-12-24T00:21:31;12.17;;;2.23;;
5805;SDS011;2929;50.810;8.342;2022-12-24T00:23:58;8.73;;;1.70;;
5805;SDS011;2929;50.810;8.342;2022-12-24T00:26:29;11.60;;;1.90;;
5805;SDS011;2929;50.810;8.342;2022-12-24T00:28:56;13.00;;;2.37;;
5805;SDS011;2929;50.810;8.342;2022-12-24T00:31:23;15.20;;;2.30;;
5805;SDS011;2929;50.810;8.342;2022-12-24T00:33:50;20.47;;;2.37;;
5805;SDS011;2929;50.810;8.342;2022-12-24T00:36:17;8.53;;;1.77;;
5805;SDS011;2929;50.810;8.342;2022-12-24T00:38:45;10.80;;;2.67;;
5805;SDS011;2929;50.810;8.342;2022-12-24T00:41:12;17.63;;;3.10;;
5805;SDS011;2929;50.810;8.342;2022-12-24T00:43:51;15.93;;;1.90;;
5805;SDS011;2929;50.810;8.342;2022-12-24T00:46:18;14.07;;;2.20;;
5805;SDS011;2929;50.810;8.342;2022-12-24T00:48:46;21.17;;;2.67;;
5805;SDS011;2929;50.810;8.342;2022-12-24T00:51:13;12.17;;;1.93;;
5805;SDS011;2929;50.810;8.342;2022-12-24T00:53:40;18.90;;;2.70;;
5805;SDS011;2929;50.810;8.342;2022-12-24T00:56:07;23.43;;;3.73;;
5805;SDS011;2929;50.810;8.342;2022-12-24T00:58:34;18.90;;;3.00;;
5805;SDS011;2929;50.810;8.342;2022-12-24T01:01:03;16.67;;;3.00;;
5805;SDS011;2929;50.810;8.342;2022-12-24T01:03:30;17.23;;;3.17;;
5805;SDS011;2929;50.810;8.342;2022-12-24T01:06:00;12.50;;;2.50;;
5805;SDS011;2929;50.810;8.342;2022-12-24T01:08:27;11.00;;;2.27;;
5805;SDS011;2929;50.810;8.342;2022-12-24T01:10:54;10.40;;;3.10;;
5805;SDS011;2929;50.810;8.342;2022-12-24T01:13:21;10.87;;;2.00;;
5805;SDS011;2929;50.810;8.342;2022-12-24T01:15:48;26.83;;;3.63;;
5805;SDS011;2929;50.810;8.342;2022-12-24T01:18:17;22.73;;;3.00;;
5805;SDS011;2929;50.810;8.342;2022-12-24T01:20:44;16.10;;;2.50;;
5805;SDS011;2929;50.810;8.342;2022-12-24T01:23:11;15.27;;;2.90;;
5805;SDS011;2929;50.810;8.342;2022-12-24T01:25:38;12.70;;;2.30;;
5805;SDS011;2929;50.810;8.342;2022-12-24T01:28:05;19.67;;;2.67;;
5805;SDS011;2929;50.810;8.342;2022-12-24T01:30:32;13.20;;;3.17;;
5805;SDS011;2929;50.810;8.342;2022-12-24T01:32:59;16.23;;;2.57;;
5805;SDS011;2929;50.810;8.342;2022-12-24T01:35:27;8.33;;;2.30;;
5805;SDS011;2929;50.810;8.342;2022-12-24T01:37:54;17.27;;;2.30;;
5805;SDS011;2929;50.810;8.342;2022-12-24T01:40:21;22.57;;;2.40;;
5805;SDS011;2929;50.810;8.342;2022-12-24T01:43:11;11.80;;;2.83;;
5805;SDS011;2929;50.810;8.342;2022-12-24T01:45:53;24.70;;;2.83;;
5805;SDS011;2929;50.810;8.342;2022-12-24T01:48:22;20.57;;;3.00;;
5805;SDS011;2929;50.810;8.342;2022-12-24T01:51:00;16.73;;;3.00;;
5805;SDS011;2929;50.810;8.342;2022-12-24T01:53:30;19.57;;;3.70;;
5805;SDS011;2929;50.810;8.342;2022-12-24T01:56:02;13.10;;;2.40;;
5805;SDS011;2929;50.810;8.342;2022-12-24T01:58:31;21.93;;;2.60;;
5805;SDS011;2929;50.810;8.342;2022-12-24T02:01:05;22.13;;;3.10;;
5805;SDS011;2929;50.810;8.342;2022-12-24T02:03:32;13.80;;;3.07;;
5805;SDS011;2929;50.810;8.342;2022-12-24T02:06:01;17.57;;;2.30;;
5805;SDS011;2929;50.810;8.342;2022-12-24T02:08:29;15.97;;;2.63;;
5805;SDS011;2929;50.810;8.342;2022-12-24T02:11:12;23.77;;;3.10;;
5805;SDS011;2929;50.810;8.342;2022-12-24T02:13:40;21.30;;;4.63;;
5805;SDS011;2929;50.810;8.342;2022-12-24T02:16:13;23.83;;;2.50;;
5805;SDS011;2929;50.810;8.342;2022-12-24T02:18:50;17.37;;;2.43;;
5805;SDS011;2929;50.810;8.342;2022-12-24T02:21:28;21.50;;;2.90;;
5805;SDS011;2929;50.810;8.342;2022-12-24T02:24:27;17.53;;;2.43;;
5805;SDS011;2929;50.810;8.342;2022-12-24T02:27:26;12.67;;;2.63;;
5805;SDS011;2929;50.810;8.342;2022-12-24T02:30:07;26.30;;;2.97;;
5805;SDS011;2929;50.810;8.342;2022-12-24T02:32:45;21.57;;;3.03;;
5805;SDS011;2929;50.810;8.342;2022-12-24T02:35:34;16.77;;;2.43;;
5805;SDS011;2929;50.810;8.342;2022-12-24T02:38:11;27.07;;;3.33;;
5805;SDS011;2929;50.810;8.342;2022-12-24T02:40:42;22.20;;;3.20;;
5805;SDS011;2929;50.810;8.342;2022-12-24T02:43:14;15.23;;;2.23;;
5805;SDS011;2929;50.810;8.342;2022-12-24T02:45:47;14.80;;;3.07;;
5805;SDS011;2929;50.810;8.342;2022-12-24T02:48:19;21.80;;;2.77;;
5805;SDS011;2929;50.810;8.342;2022-12-24T02:50:56;17.93;;;2.60;;
5805;SDS011;2929;50.810;8.342;2022-12-24T02:53:24;14.63;;;2.60;;
5805;SDS011;2929;50.810;8.342;2022-12-24T02:59:10;18.60;;;3.77;;
5805;SDS011;2929;50.810;8.342;2022-12-24T03:02:02;12.50;;;2.27;;
5805;SDS011;2929;50.810;8.342;2022-12-24T03:04:37;18.90;;;2.70;;
5805;SDS011;2929;50.810;8.342;2022-12-24T03:07:14;17.63;;;2.33;;
5805;SDS011;2929;50.810;8.342;2022-12-24T03:09:50;17.63;;;3.90;;
5805;SDS011;2929;50.810;8.342;2022-12-24T03:12:25;18.87;;;2.40;;
5805;SDS011;2929;50.810;8.342;2022-12-24T03:14:56;19.47;;;2.80;;
5805;SDS011;2929;50.810;8.342;2022-12-24T03:17:25;26.40;;;3.17;;
5805;SDS011;2929;50.810;8.342;2022-12-24T03:19:53;17.53;;;3.13;;
5805;SDS011;2929;50.810;8.342;2022-12-24T03:22:21;16.23;;;2.40;;
5805;SDS011;2929;50.810;8.342;2022-12-24T03:24:50;18.97;;;2.17;;
5805;SDS011;2929;50.810;8.342;2022-12-24T03:27:17;14.20;;;3.00;;
5805;SDS011;2929;50.810;8.342;2022-12-24T03:29:44;8.17;;;1.67;;
5805;SDS011;2929;50.810;8.342;2022-12-24T03:32:14;11.03;;;2.30;;
5805;SDS011;2929;50.810;8.342;2022-12-24T03:34:50;29.23;;;3.27;;
5805;SDS011;2929;50.810;8.342;2022-12-24T03:37:17;23.47;;;2.93;;
5805;SDS011;2929;50.810;8.342;2022-12-24T03:39:44;20.40;;;2.93;;
5805;SDS011;2929;50.810;8.342;2022-12-24T03:42:11;17.07;;;2.37;;
5805;SDS011;2929;50.810;8.342;2022-12-24T03:44:38;13.70;;;2.40;;
5805;SDS011;2929;50.810;8.342;2022-12-24T03:47:05;17.60;;;2.80;;
5805;SDS011;2929;50.810;8.342;2022-12-24T03:49:32;20.00;;;3.50;;
5805;SDS011;2929;50.810;8.342;2022-12-24T03:52:01;18.43;;;2.47;;
5805;SDS011;2929;50.810;8.342;2022-12-24T03:54:28;14.93;;;2.50;;
5805;SDS011;2929;50.810;8.342;2022-12-24T03:56:55;13.23;;;2.70;;
5805;SDS011;2929;50.810;8.342;2022-12-24T03:59:22;14.03;;;2.80;;
5805;SDS011;2929;50.810;8.342;2022-12-24T04:01:49;27.43;;;3.43;;
5805;SDS011;2929;50.810;8.342;2022-12-24T04:04:16;12.30;;;3.13;;
5805;SDS011;2929;50.810;8.342;2022-12-24T04:06:43;13.80;;;2.60;;
5805;SDS011;2929;50.810;8.342;2022-12-24T04:09:12;27.40;;;3.30;;
5805;SDS011;2929;50.810;8.342;2022-12-24T04:11:39;18.07;;;2.50;;
5805;SDS011;2929;50.810;8.342;2022-12-24T04:14:06;16.73;;;2.57;;
5805;SDS011;2929;50.810;8.342;2022-12-24T04:16:33;18.40;;;3.27;;
5805;SDS011;2929;50.810;8.342;2022-12-24T04:19:00;21.67;;;3.77;;
5805;SDS011;2929;50.810;8.342;2022-12-24T04:21:27;25.17;;;3.60;;
5805;SDS011;2929;50.810;8.342;2022-12-24T04:23:54;20.70;;;3.83;;
5805;SDS011;2929;50.810;8.342;2022-12-24T04:26:22;18.77;;;2.97;;
5805;SDS011;2929;50.810;8.342;2022-12-24T04:28:49;20.50;;;3.00;;
5805;SDS011;2929;50.810;8.342;2022-12-24T04:31:16;13.47;;;3.40;;
5805;SDS011;2929;50.810;8.342;2022-12-24T04:33:43;15.03;;;3.00;;
5805;SDS011;2929;50.810;8.342;2022-12-24T04:36:12;19.43;;;3.87;;
5805;SDS011;2929;50.810;8.342;2022-12-24T04:38:41;21.93;;;2.77;;
5805;SDS011;2929;50.810;8.342;2022-12-24T04:41:09;9.37;;;2.47;;
5805;SDS011;2929;50.810;8.342;2022-12-24T04:43:40;26.63;;;3.30;;
5805;SDS011;2929;50.810;8.342;2022-12-24T04:46:07;14.63;;;2.40;;
5805;SDS011;2929;50.810;8.342;2022-12-24T04:48:39;12.90;;;1.87;;
5805;SDS011;2929;50.810;8.342;2022-12-24T04:51:07;13.47;;;2.20;;
5805;SDS011;2929;50.810;8.342;2022-12-24T04:53:34;11.80;;;2.27;;
5805;SDS011;2929;50.810;8.342;2022-12-24T04:56:02;7.10;;;1.80;;
5805;SDS011;2929;50.810;8.342;2022-12-24T04:58:32;10.20;;;1.77;;
5805;SDS011;2929;50.810;8.342;2022-12-24T05:01:03;10.07;;;2.07;;
5805;SDS011;2929;50.810;8.342;2022-12-24T05:03:30;5.50;;;1.53;;
5805;SDS011;2929;50.810;8.342;2022-12-24T05:06:01;11.80;;;1.63;;
5805;SDS011;2929;50.810;8.342;2022-12-24T05:08:28;10.93;;;1.73;;
5805;SDS011;2929;50.810;8.342;2022-12-24T05:10:55;5.30;;;1.30;;
5805;SDS011;2929;50.810;8.342;2022-12-24T05:13:23;8.00;;;1.73;;
5805;SDS011;2929;50.810;8.342;2022-12-24T05:15:51;5.60;;;1.37;;
5805;SDS011;2929;50.810;8.342;2022-12-24T05:18:19;6.93;;;1.50;;
5805;SDS011;2929;50.810;8.342;2022-12-24T05:20:47;12.53;;;1.10;;
5805;SDS011;2929;50.810;8.342;2022-12-24T05:23:14;11.60;;;1.53;;
5805;SDS011;2929;50.810;8.342;2022-12-24T05:26:00;5.00;;;1.00;;
5805;SDS011;2929;50.810;8.342;2022-12-24T05:28:45;6.43;;;1.13;;
5805;SDS011;2929;50.810;8.342;2022-12-24T05:31:12;7.50;;;1.30;;
5805;SDS011;2929;50.810;8.342;2022-12-24T05:33:40;7.40;;;2.33;;
5805;SDS011;2929;50.810;8.342;2022-12-24T05:36:08;6.40;;;1.33;;
5805;SDS011;2929;50.810;8.342;2022-12-24T05:38:35;5.60;;;0.90;;
5805;SDS011;2929;50.810;8.342;2022-12-24T05:41:02;2.67;;;1.27;;
5805;SDS011;2929;50.810;8.342;2022-12-24T05:43:30;1.10;;;0.77;;
5805;SDS011;2929;50.810;8.342;2022-12-24T05:45:57;6.63;;;1.20;;
5805;SDS011;2929;50.810;8.342;2022-12-24T05:48:25;2.27;;;1.10;;
5805;SDS011;2929;50.810;8.342;2022-12-24T05:50:53;3.57;;;0.73;;
5805;SDS011;2929;50.810;8.342;2022-12-24T05:53:20;2.03;;;1.00;;
5805;SDS011;2929;50.810;8.342;2022-12-24T05:55:48;3.73;;;1.20;;
5805;SDS011;2929;50.810;8.342;2022-12-24T05:58:15;1.10;;;0.70;;
5805;SDS011;2929;50.810;8.342;2022-12-24T06:00:42;7.67;;;1.27;;
5805;SDS011;2929;50.810;8.342;2022-12-24T06:03:09;5.47;;;1.00;;
5805;SDS011;2929;50.810;8.342;2022-12-24T06:05:36;4.50;;;1.60;;
5805;SDS011;2929;50.810;8.342;2022-12-24T06:08:06;4.30;;;1.53;;
5805;SDS011;2929;50.810;8.342;2022-12-24T06:10:33;2.87;;;1.20;;
5805;SDS011;2929;50.810;8.342;2022-12-24T06:13:00;9.03;;;1.40;;
5805;SDS011;2929;50.810;8.342;2022-12-24T06:15:27;3.33;;;0.83;;
5805;SDS011;2929;50.810;8.342;2022-12-24T06:17:55;3.13;;;1.20;;
5805;SDS011;2929;50.810;8.342;2022-12-24T06:20:22;2.60;;;1.00;;
5805;SDS011;2929;50.810;8.342;2022-12-24T06:22:49;9.80;;;1.50;;
5805;SDS011;2929;50.810;8.342;2022-12-24T06:25:17;3.97;;;1.20;;
5805;SDS011;2929;50.810;8.342;2022-12-24T06:27:44;4.57;;;1.03;;
5805;SDS011;2929;50.810;8.342;2022-12-24T06:30:12;7.33;;;1.37;;
5805;SDS011;2929;50.810;8.342;2022-12-24T06:32:39;2.20;;;1.17;;
5805;SDS011;2929;50.810;8.342;2022-12-24T06:35:06;6.40;;;1.20;;
5805;SDS011;2929;50.810;8.342;2022-12-24T06:37:33;11.60;;;2.00;;
5805;SDS011;2929;50.810;8.342;2022-12-24T06:40:00;5.77;;;1.40;;
5805;SDS011;2929;50.810;8.342;2022-12-24T06:42:28;6.60;;;1.53;;
5805;SDS011;2929;50.810;8.342;2022-12-24T06:44:55;3.10;;;1.30;;
5805;SDS011;2929;50.810;8.342;2022-12-24T06:47:22;5.83;;;1.30;;
5805;SDS011;2929;50.810;8.342;2022-12-24T06:49:49;3.50;;;1.17;;
5805;SDS011;2929;50.810;8.342;2022-12-24T06:52:16;3.90;;;1.67;;
5805;SDS011;2929;50.810;8.342;2022-12-24T06:54:43;8.90;;;1.50;;
5805;SDS011;2929;50.810;8.342;2022-12-24T06:57:10;4.77;;;1.10;;
5805;SDS011;2929;50.810;8.342;2022-12-24T06:59:39;9.33;;;1.50;;
5805;SDS011;2929;50.810;8.342;2022-12-24T07:02:07;7.37;;;1.30;;
5805;SDS011;2929;50.810;8.342;2022-12-24T07:04:34;9.07;;;1.50;;
5805;SDS011;2929;50.810;8.342;2022-12-24T07:07:01;4.40;;;1.40;;
5805;SDS011;2929;50.810;8.342;2022-12-24T07:09:28;10.20;;;1.73;;
5805;SDS011;2929;50.810;8.342;2022-12-24T07:11:56;8.97;;;1.67;;
5805;SDS011;2929;50.810;8.342;2022-12-24T07:14:23;8.73;;;2.90;;
5805;SDS011;2929;50.810;8.342;2022-12-24T07:16:52;6.43;;;1.80;;
5805;SDS011;2929;50.810;8.342;2022-12-24T07:19:19;13.83;;;1.77;;
5805;SDS011;2929;50.810;8.342;2022-12-24T07:21:46;5.60;;;1.67;;
5805;SDS011;2929;50.810;8.342;2022-12-24T07:24:14;12.23;;;1.83;;
5805;SDS011;2929;50.810;8.342;2022-12-24T07:26:41;7.07;;;1.70;;
5805;SDS011;2929;50.810;8.342;2022-12-24T07:29:08;4.50;;;2.07;;
5805;SDS011;2929;50.810;8.342;2022-12-24T07:31:35;11.13;;;2.30;;
5805;SDS011;2929;50.810;8.342;2022-12-24T07:34:04;8.17;;;2.90;;
5805;SDS011;2929;50.810;8.342;2022-12-24T07:36:31;15.60;;;2.27;;
5805;SDS011;2929;50.810;8.342;2022-12-24T07:38:59;11.67;;;2.33;;
5805;SDS011;2929;50.810;8.342;2022-12-24T07:41:26;4.60;;;1.50;;
5805;SDS011;2929;50.810;8.342;2022-12-24T07:43:53;20.47;;;2.77;;
5805;SDS011;2929;50.810;8.342;2022-12-24T07:46:20;8.10;;;2.67;;
5805;SDS011;2929;50.810;8.342;2022-12-24T07:48:47;12.10;;;2.20;;
5805;SDS011;2929;50.810;8.342;2022-12-24T07:51:15;10.40;;;2.80;;
5805;SDS011;2929;50.810;8.342;2022-12-24T07:53:42;12.63;;;3.43;;
5805;SDS011;2929;50.810;8.342;2022-12-24T07:56:12;5.30;;;2.30;;
5805;SDS011;2929;50.810;8.342;2022-12-24T07:58:40;9.13;;;3.27;;
5805;SDS011;2929;50.810;8.342;2022-12-24T08:01:07;7.87;;;2.20;;
5805;SDS011;2929;50.810;8.342;2022-12-24T08:03:35;11.57;;;2.30;;
5805;SDS011;2929;50.810;8.342;2022-12-24T08:06:02;8.43;;;2.17;;
5805;SDS011;2929;50.810;8.342;2022-12-24T08:08:30;28.37;;;4.60;;
5805;SDS011;2929;50.810;8.342;2022-12-24T08:10:59;15.37;;;3.90;;
5805;SDS011;2929;50.810;8.342;2022-12-24T08:13:27;11.13;;;2.60;;
5805;SDS011;2929;50.810;8.342;2022-12-24T08:15:54;7.07;;;3.10;;
5805;SDS011;2929;50.810;8.342;2022-12-24T08:18:22;12.27;;;2.87;;
5805;SDS011;2929;50.810;8.342;2022-12-24T08:20:49;18.33;;;4.00;;
5805;SDS011;2929;50.810;8.342;2022-12-24T08:23:16;12.60;;;2.93;;
5805;SDS011;2929;50.810;8.342;2022-12-24T08:25:45;20.13;;;3.50;;
5805;SDS011;2929;50.810;8.342;2022-12-24T08:28:14;17.37;;;2.90;;
5805;SDS011;2929;50.810;8.342;2022-12-24T08:30:43;17.90;;;3.00;;
5805;SDS011;2929;50.810;8.342;2022-12-24T08:33:10;15.27;;;3.37;;
5805;SDS011;2929;50.810;8.342;2022-12-24T08:35:38;16.77;;;2.80;;
5805;SDS011;2929;50.810;8.342;2022-12-24T08:38:05;17.83;;;3.17;;
5805;SDS011;2929;50.810;8.342;2022-12-24T08:40:32;12.60;;;2.33;;
5805;SDS011;2929;50.810;8.342;2022-12-24T08:43:01;12.70;;;2.57;;
5805;SDS011;2929;50.810;8.342;2022-12-24T08:45:28;26.00;;;3.40;;
5805;SDS011;2929;50.810;8.342;2022-12-24T08:47:57;12.30;;;2.90;;
5805;SDS011;2929;50.810;8.342;2022-12-24T08:50:24;27.53;;;4.13;;
5805;SDS011;2929;50.810;8.342;2022-12-24T08:52:52;13.73;;;2.70;;
5805;SDS011;2929;50.810;8.342;2022-12-24T08:55:19;23.83;;;3.57;;
5805;SDS011;2929;50.810;8.342;2022-12-24T08:57:46;11.17;;;2.87;;
5805;SDS011;2929;50.810;8.342;2022-12-24T09:00:15;26.77;;;3.80;;
5805;SDS011;2929;50.810;8.342;2022-12-24T09:02:43;16.10;;;3.20;;
5805;SDS011;2929;50.810;8.342;2022-12-24T09:05:10;15.87;;;3.30;;
5805;SDS011;2929;50.810;8.342;2022-12-24T09:07:37;22.27;;;3.17;;
5805;SDS011;2929;50.810;8.342;2022-12-24T09:10:08;28.80;;;9.83;;
5805;SDS011;2929;50.810;8.342;2022-12-24T09:12:36;26.60;;;4.03;;
5805;SDS011;2929;50.810;8.342;2022-12-24T09:15:04;15.73;;;3.40;;
5805;SDS011;2929;50.810;8.342;2022-12-24T09:17:33;21.10;;;3.83;;
5805;SDS011;2929;50.810;8.342;2022-12-24T09:20:01;23.70;;;4.20;;
5805;SDS011;2929;50.810;8.342;2022-12-24T09:22:28;18.63;;;3.83;;
5805;SDS011;2929;50.810;8.342;2022-12-24T09:24:55;21.43;;;3.90;;
5805;SDS011;2929;50.810;8.342;2022-12-24T09:27:22;14.73;;;3.87;;
5805;SDS011;2929;50.810;8.342;2022-12-24T09:29:49;15.47;;;5.30;;
5805;SDS011;2929;50.810;8.342;2022-12-24T09:32:17;15.57;;;3.23;;
5805;SDS011;2929;50.810;8.342;2022-12-24T09:34:45;18.43;;;4.20;;
5805;SDS011;2929;50.810;8.342;2022-12-24T09:37:13;19.90;;;3.10;;
5805;SDS011;2929;50.810;8.342;2022-12-24T09:39:40;14.43;;;3.30;;
5805;SDS011;2929;50.810;8.342;2022-12-24T09:42:11;17.77;;;3.63;;
5805;SDS011;2929;50.810;8.342;2022-12-24T09:44:48;20.00;;;4.10;;
5805;SDS011;2929;50.810;8.342;2022-12-24T09:47:23;17.33;;;3.57;;
5805;SDS011;2929;50.810;8.342;2022-12-24T09:49:57;15.37;;;3.00;;
5805;SDS011;2929;50.810;8.342;2022-12-24T09:52:29;25.27;;;3.80;;
5805;SDS011;2929;50.810;8.342;2022-12-24T09:55:03;24.80;;;3.27;;
5805;SDS011;2929;50.810;8.342;2022-12-24T09:57:39;33.80;;;4.13;;
5805;SDS011;2929;50.810;8.342;2022-12-24T10:00:25;23.67;;;3.50;;
5805;SDS011;2929;50.810;8.342;2022-12-24T10:02:54;18.73;;;3.87;;
5805;SDS011;2929;50.810;8.342;2022-12-24T10:05:25;24.63;;;3.67;;
5805;SDS011;2929;50.810;8.342;2022-12-24T10:08:03;27.10;;;4.50;;
5805;SDS011;2929;50.810;8.342;2022-12-24T10:10:41;22.63;;;4.27;;
5805;SDS011;2929;50.810;8.342;2022-12-24T10:13:17;22.60;;;6.20;;
5805;SDS011;2929;50.810;8.342;2022-12-24T10:15:53;21.10;;;3.60;;
5805;SDS011;2929;50.810;8.342;2022-12-24T10:18:26;20.23;;;3.80;;
5805;SDS011;2929;50.810;8.342;2022-12-24T10:21:08;15.80;;;3.47;;
5805;SDS011;2929;50.810;8.342;2022-12-24T10:23:40;29.17;;;3.57;;
5805;SDS011;2929;50.810;8.342;2022-12-24T10:26:14;26.37;;;3.80;;
5805;SDS011;2929;50.810;8.342;2022-12-24T10:28:46;25.23;;;3.77;;
5805;SDS011;2929;50.810;8.342;2022-12-24T10:31:16;31.80;;;4.73;;
5805;SDS011;2929;50.810;8.342;2022-12-24T10:33:49;16.47;;;3.13;;
5805;SDS011;2929;50.810;8.342;2022-12-24T10:36:23;18.67;;;4.40;;
5805;SDS011;2929;50.810;8.342;2022-12-24T10:38:52;26.00;;;3.37;;
5805;SDS011;2929;50.810;8.342;2022-12-24T10:41:20;14.40;;;3.40;;
5805;SDS011;2929;50.810;8.342;2022-12-24T10:43:48;22.33;;;3.77;;
5805;SDS011;2929;50.810;8.342;2022-12-24T10:46:20;25.43;;;3.70;;
5805;SDS011;2929;50.810;8.342;2022-12-24T10:48:50;18.37;;;2.80;;
5805;SDS011;2929;50.810;8.342;2022-12-24T10:51:23;23.30;;;3.70;;
5805;SDS011;2929;50.810;8.342;2022-12-24T10:53:55;18.30;;;3.30;;
5805;SDS011;2929;50.810;8.342;2022-12-24T10:56:26;24.00;;;3.13;;
5805;SDS011;2929;50.810;8.342;2022-12-24T10:58:54;21.70;;;3.10;;
5805;SDS011;2929;50.810;8.342;2022-12-24T11:04:12;12.87;;;3.00;;
5805;SDS011;2929;50.810;8.342;2022-12-24T11:06:50;15.07;;;3.30;;
5805;SDS011;2929;50.810;8.342;2022-12-24T11:09:19;26.13;;;3.53;;
5805;SDS011;2929;50.810;8.342;2022-12-24T11:11:48;23.43;;;3.60;;
5805;SDS011;2929;50.810;8.342;2022-12-24T11:14:16;23.60;;;5.13;;
5805;SDS011;2929;50.810;8.342;2022-12-24T11:16:47;20.30;;;4.17;;
5805;SDS011;2929;50.810;8.342;2022-12-24T11:19:17;17.60;;;4.53;;
5805;SDS011;2929;50.810;8.342;2022-12-24T11:21:54;20.70;;;3.77;;
5805;SDS011;2929;50.810;8.342;2022-12-24T11:24:25;24.00;;;3.80;;
5805;SDS011;2929;50.810;8.342;2022-12-24T11:26:55;19.37;;;3.87;;
5805;SDS011;2929;50.810;8.342;2022-12-24T11:29:50;21.50;;;4.20;;
5805;SDS011;2929;50.810;8.342;2022-12-24T11:32:17;25.23;;;4.53;;
5805;SDS011;2929;50.810;8.342;2022-12-24T11:34:46;14.87;;;4.30;;
5805;SDS011;2929;50.810;8.342;2022-12-24T11:37:16;20.33;;;3.20;;
5805;SDS011;2929;50.810;8.342;2022-12-24T11:39:46;21.93;;;3.57;;
5805;SDS011;2929;50.810;8.342;2022-12-24T11:42:22;20.23;;;4.40;;
5805;SDS011;2929;50.810;8.342;2022-12-24T11:44:54;19.27;;;3.53;;
5805;SDS011;2929;50.810;8.342;2022-12-24T11:47:33;19.03;;;4.70;;
5805;SDS011;2929;50.810;8.342;2022-12-24T11:52:55;19.90;;;3.80;;
5805;SDS011;2929;50.810;8.342;2022-12-24T11:55:35;30.37;;;3.47;;
5805;SDS011;2929;50.810;8.342;2022-12-24T11:58:15;23.33;;;3.70;;
5805;SDS011;2929;50.810;8.342;2022-12-24T12:00:49;23.03;;;3.80;;
5805;SDS011;2929;50.810;8.342;2022-12-24T12:03:26;28.13;;;4.53;;
5805;SDS011;2929;50.810;8.342;2022-12-24T12:05:57;27.00;;;4.40;;
5805;SDS011;2929;50.810;8.342;2022-12-24T12:08:28;13.37;;;2.57;;
5805;SDS011;2929;50.810;8.342;2022-12-24T12:10:56;31.50;;;4.30;;
5805;SDS011;2929;50.810;8.342;2022-12-24T12:13:26;23.80;;;4.20;;
5805;SDS011;2929;50.810;8.342;2022-12-24T12:16:01;16.03;;;3.27;;
5805;SDS011;2929;50.810;8.342;2022-12-24T12:18:37;20.50;;;4.40;;
5805;SDS011;2929;50.810;8.342;2022-12-24T12:21:07;19.63;;;4.50;;
5805;SDS011;2929;50.810;8.342;2022-12-24T12:23:42;18.90;;;3.40;;
5805;SDS011;2929;50.810;8.342;2022-12-24T12:26:14;17.03;;;3.80;;
5805;SDS011;2929;50.810;8.342;2022-12-24T12:28:46;22.50;;;4.50;;
5805;SDS011;2929;50.810;8.342;2022-12-24T12:31:18;23.53;;;4.20;;
5805;SDS011;2929;50.810;8.342;2022-12-24T12:33:51;15.20;;;3.90;;
5805;SDS011;2929;50.810;8.342;2022-12-24T12:36:22;20.30;;;3.87;;
5805;SDS011;2929;50.810;8.342;2022-12-24T12:38:55;23.07;;;4.10;;
5805;SDS011;2929;50.810;8.342;2022-12-24T12:41:34;23.70;;;4.50;;
5805;SDS011;2929;50.810;8.342;2022-12-24T12:44:33;18.00;;;3.83;;
5805;SDS011;2929;50.810;8.342;2022-12-24T12:47:22;29.43;;;4.00;;
5805;SDS011;2929;50.810;8.342;2022-12-24T12:50:02;14.83;;;3.10;;
5805;SDS011;2929;50.810;8.342;2022-12-24T12:52:41;20.43;;;3.07;;
5805;SDS011;2929;50.810;8.342;2022-12-24T12:55:23;19.03;;;3.77;;
5805;SDS011;2929;50.810;8.342;2022-12-24T12:58:02;22.40;;;3.30;;
5805;SDS011;2929;50.810;8.342;2022-12-24T13:00:34;25.43;;;3.20;;
5805;SDS011;2929;50.810;8.342;2022-12-24T13:06:22;21.27;;;3.20;;
5805;SDS011;2929;50.810;8.342;2022-12-24T13:12:20;21.67;;;3.90;;
5805;SDS011;2929;50.810;8.342;2022-12-24T13:15:30;27.17;;;5.97;;
5805;SDS011;2929;50.810;8.342;2022-12-24T13:18:23;25.73;;;3.90;;
5805;SDS011;2929;50.810;8.342;2022-12-24T13:21:13;13.73;;;2.57;;
5805;SDS011;2929;50.810;8.342;2022-12-24T13:23:43;16.27;;;2.97;;
5805;SDS011;2929;50.810;8.342;2022-12-24T13:26:11;20.37;;;3.53;;
5805;SDS011;2929;50.810;8.342;2022-12-24T13:28:41;23.80;;;4.70;;
5805;SDS011;2929;50.810;8.342;2022-12-24T13:31:22;17.40;;;4.07;;
5805;SDS011;2929;50.810;8.342;2022-12-24T13:33:55;21.00;;;3.77;;
5805;SDS011;2929;50.810;8.342;2022-12-24T13:42:45;15.47;;;3.53;;
5805;SDS011;2929;50.810;8.342;2022-12-24T13:48:26;23.57;;;4.30;;
5805;SDS011;2929;50.810;8.342;2022-12-24T13:50:57;21.43;;;3.20;;
5805;SDS011;2929;50.810;8.342;2022-12-24T13:53:27;19.33;;;4.50;;
5805;SDS011;2929;50.810;8.342;2022-12-24T13:55:59;21.07;;;3.40;;
5805;SDS011;2929;50.810;8.342;2022-12-24T13:58:34;23.47;;;3.63;;
5805;SDS011;2929;50.810;8.342;2022-12-24T14:01:04;13.90;;;3.93;;
5805;SDS011;2929;50.810;8.342;2022-12-24T14:03:36;13.13;;;3.10;;
5805;SDS011;2929;50.810;8.342;2022-12-24T14:06:09;13.13;;;3.20;;
5805;SDS011;2929;50.810;8.342;2022-12-24T14:08:40;30.43;;;4.50;;
5805;SDS011;2929;50.810;8.342;2022-12-24T14:11:11;16.70;;;3.40;;
5805;SDS011;2929;50.810;8.342;2022-12-24T14:13:51;25.67;;;3.90;;
5805;SDS011;2929;50.810;8.342;2022-12-24T14:16:44;17.57;;;3.43;;
5805;SDS011;2929;50.810;8.342;2022-12-24T14:19:17;18.17;;;3.20;;
5805;SDS011;2929;50.810;8.342;2022-12-24T14:21:50;31.93;;;5.03;;
5805;SDS011;2929;50.810;8.342;2022-12-24T14:24:24;16.00;;;3.20;;
5805;SDS011;2929;50.810;8.342;2022-12-24T14:26:57;17.83;;;3.73;;
5805;SDS011;2929;50.810;8.342;2022-12-24T14:29:32;15.63;;;4.00;;
5805;SDS011;2929;50.810;8.342;2022-12-24T14:32:11;14.20;;;3.03;;
5805;SDS011;2929;50.810;8.342;2022-12-24T14:34:40;23.10;;;3.03;;
5805;SDS011;2929;50.810;8.342;2022-12-24T14:37:11;18.77;;;2.63;;
5805;SDS011;2929;50.810;8.342;2022-12-24T14:39:47;20.60;;;3.67;;
5805;SDS011;2929;50.810;8.342;2022-12-24T14:42:25;18.43;;;3.30;;
5805;SDS011;2929;50.810;8.342;2022-12-24T14:45:04;25.80;;;3.33;;
5805;SDS011;2929;50.810;8.342;2022-12-24T14:47:43;24.97;;;2.97;;
5805;SDS011;2929;50.810;8.342;2022-12-24T14:53:20;27.70;;;3.80;;
5805;SDS011;2929;50.810;8.342;2022-12-24T14:56:13;21.10;;;3.70;;
5805;SDS011;2929;50.810;8.342;2022-12-24T14:58:50;9.40;;;2.70;;
5805;SDS011;2929;50.810;8.342;2022-12-24T15:01:31;13.60;;;3.47;;
5805;SDS011;2929;50.810;8.342;2022-12-24T15:04:04;21.00;;;3.33;;
5805;SDS011;2929;50.810;8.342;2022-12-24T15:06:43;20.53;;;3.70;;
5805;SDS011;2929;50.810;8.342;2022-12-24T15:09:15;25.73;;;4.23;;
5805;SDS011;2929;50.810;8.342;2022-12-24T15:11:46;26.37;;;5.10;;
5805;SDS011;2929;50.810;8.342;2022-12-24T15:14:15;21.63;;;5.03;;
5805;SDS011;2929;50.810;8.342;2022-12-24T15:16:47;21.73;;;4.77;;
5805;SDS011;2929;50.810;8.342;2022-12-24T15:19:20;25.43;;;5.93;;
5805;SDS011;2929;50.810;8.342;2022-12-24T15:21:50;31.93;;;7.03;;
5805;SDS011;2929;50.810;8.342;2022-12-24T15:24:25;17.20;;;4.93;;
5805;SDS011;2929;50.810;8.342;2022-12-24T15:26:54;23.80;;;6.53;;
5805;SDS011;2929;50.810;8.342;2022-12-24T15:29:22;20.17;;;5.30;;
5805;SDS011;2929;50.810;8.342;2022-12-24T15:31:52;17.63;;;4.90;;
5805;SDS011;2929;50.810;8.342;2022-12-24T15:34:24;10.77;;;4.40;;
5805;SDS011;2929;50.810;8.342;2022-12-24T15:36:59;19.03;;;4.63;;
5805;SDS011;2929;50.810;8.342;2022-12-24T15:39:27;14.50;;;3.90;;
5805;SDS011;2929;50.810;8.342;2022-12-24T15:41:56;14.00;;;4.83;;
5805;SDS011;2929;50.810;8.342;2022-12-24T15:44:39;11.73;;;4.43;;
5805;SDS011;2929;50.810;8.342;2022-12-24T15:47:13;13.93;;;5.17;;
5805;SDS011;2929;50.810;8.342;2022-12-24T15:49:43;24.30;;;6.77;;
5805;SDS011;2929;50.810;8.342;2022-12-24T15:52:15;21.33;;;6.83;;
5805;SDS011;2929;50.810;8.342;2022-12-24T15:54:44;34.43;;;12.57;;
5805;SDS011;2929;50.810;8.342;2022-12-24T15:57:20;32.03;;;13.63;;